sensor_id;sensor_type;location;lat;lon;timestamp;P1;durP1;ratioP1;P2;durP2;ratioP2
16320;SDS011;8269;50.990;4.494;2023-08-30T00:00:17;4.65;;;2.90;;
16320;SDS011;8269;50.990;4.494;2023-08-30T00:02:43;6.85;;;3.10;;
16320;SDS011;8269;50.990;4.494;2023-08-30T00:05:12;4.88;;;3.17;;
16320;SDS011;8269;50.990;4.494;2023-08-30T00:07:39;5.07;;;3.15;;
16320;SDS011;8269;50.990;4.494;2023-08-30T00:10:05;4.47;;;3.03;;
16320;SDS011;8269;50.990;4.494;2023-08-30T00:12:32;5.88;;;3.35;;
16320;SDS011;8269;50.990;4.494;2023-08-30T00:14:58;5.25;;;2.67;;
16320;SDS011;8269;50.990;4.494;2023-08-30T00:17:23;5.40;;;3.08;;
16320;SDS011;8269;50.990;4.494;2023-08-30T00:19:49;5.22;;;3.13;;
16320;SDS011;8269;50.990;4.494;2023-08-30T00:22:15;5.00;;;3.45;;
16320;SDS011;8269;50.990;4.494;2023-08-30T00:24:41;5.20;;;3.00;;
16320;SDS011;8269;50.990;4.494;2023-08-30T00:27:06;5.10;;;3.10;;
16320;SDS011;8269;50.990;4.494;2023-08-30T00:29:32;4.25;;;3.00;;
16320;SDS011;8269;50.990;4.494;2023-08-30T00:31:58;4.53;;;3.20;;
16320;SDS011;8269;50.990;4.494;2023-08-30T00:34:23;5.93;;;3.25;;
16320;SDS011;8269;50.990;4.494;2023-08-30T00:36:49;4.93;;;3.30;;
16320;SDS011;8269;50.990;4.494;2023-08-30T00:39:15;5.22;;;3.67;;
16320;SDS011;8269;50.990;4.494;2023-08-30T00:41:40;5.28;;;3.50;;
16320;SDS011;8269;50.990;4.494;2023-08-30T00:44:06;6.40;;;3.65;;
16320;SDS011;8269;50.990;4.494;2023-08-30T00:46:35;5.38;;;3.63;;
16320;SDS011;8269;50.990;4.494;2023-08-30T00:49:01;7.28;;;3.75;;
16320;SDS011;8269;50.990;4.494;2023-08-30T00:51:28;8.23;;;4.20;;
16320;SDS011;8269;50.990;4.494;2023-08-30T00:53:54;5.43;;;3.50;;
16320;SDS011;8269;50.990;4.494;2023-08-30T00:56:20;5.75;;;3.72;;
16320;SDS011;8269;50.990;4.494;2023-08-30T00:58:48;6.35;;;3.97;;
16320;SDS011;8269;50.990;4.494;2023-08-30T01:01:15;5.70;;;3.88;;
16320;SDS011;8269;50.990;4.494;2023-08-30T01:03:41;5.95;;;3.78;;
16320;SDS011;8269;50.990;4.494;2023-08-30T01:06:08;5.93;;;3.95;;
16320;SDS011;8269;50.990;4.494;2023-08-30T01:08:35;5.60;;;4.00;;
16320;SDS011;8269;50.990;4.494;2023-08-30T01:11:07;6.32;;;4.10;;
16320;SDS011;8269;50.990;4.494;2023-08-30T01:13:37;6.82;;;4.50;;
16320;SDS011;8269;50.990;4.494;2023-08-30T01:16:06;7.78;;;4.40;;
16320;SDS011;8269;50.990;4.494;2023-08-30T01:18:32;8.43;;;4.55;;
16320;SDS011;8269;50.990;4.494;2023-08-30T01:21:00;7.35;;;4.28;;
16320;SDS011;8269;50.990;4.494;2023-08-30T01:28:32;6.82;;;4.35;;
16320;SDS011;8269;50.990;4.494;2023-08-30T01:30:59;6.10;;;4.13;;
16320;SDS011;8269;50.990;4.494;2023-08-30T01:33:25;6.80;;;4.50;;
16320;SDS011;8269;50.990;4.494;2023-08-30T01:35:55;5.80;;;3.97;;
16320;SDS011;8269;50.990;4.494;2023-08-30T01:38:22;6.65;;;4.30;;
16320;SDS011;8269;50.990;4.494;2023-08-30T01:40:48;7.47;;;4.40;;
16320;SDS011;8269;50.990;4.494;2023-08-30T01:43:15;5.57;;;3.90;;
16320;SDS011;8269;50.990;4.494;2023-08-30T01:45:42;6.22;;;4.13;;
16320;SDS011;8269;50.990;4.494;2023-08-30T01:48:15;5.90;;;3.88;;
16320;SDS011;8269;50.990;4.494;2023-08-30T01:50:42;6.40;;;3.70;;
16320;SDS011;8269;50.990;4.494;2023-08-30T01:53:09;6.65;;;3.90;;
16320;SDS011;8269;50.990;4.494;2023-08-30T01:55:36;7.22;;;3.95;;
16320;SDS011;8269;50.990;4.494;2023-08-30T01:58:03;5.22;;;3.30;;
16320;SDS011;8269;50.990;4.494;2023-08-30T02:00:29;6.72;;;3.70;;
16320;SDS011;8269;50.990;4.494;2023-08-30T02:02:56;5.68;;;3.85;;
16320;SDS011;8269;50.990;4.494;2023-08-30T02:05:22;5.80;;;3.75;;
16320;SDS011;8269;50.990;4.494;2023-08-30T02:10:21;6.60;;;3.75;;
16320;SDS011;8269;50.990;4.494;2023-08-30T02:12:49;5.57;;;3.78;;
16320;SDS011;8269;50.990;4.494;2023-08-30T02:15:15;6.25;;;3.65;;
16320;SDS011;8269;50.990;4.494;2023-08-30T02:17:42;5.07;;;3.60;;
16320;SDS011;8269;50.990;4.494;2023-08-30T02:20:08;5.93;;;3.65;;
16320;SDS011;8269;50.990;4.494;2023-08-30T02:22:35;5.85;;;3.88;;
16320;SDS011;8269;50.990;4.494;2023-08-30T02:25:01;5.88;;;3.85;;
16320;SDS011;8269;50.990;4.494;2023-08-30T02:27:30;5.32;;;3.10;;
16320;SDS011;8269;50.990;4.494;2023-08-30T02:29:56;4.80;;;3.22;;
16320;SDS011;8269;50.990;4.494;2023-08-30T02:32:22;5.95;;;3.45;;
16320;SDS011;8269;50.990;4.494;2023-08-30T02:34:51;5.10;;;3.30;;
16320;SDS011;8269;50.990;4.494;2023-08-30T02:37:18;5.13;;;3.25;;
16320;SDS011;8269;50.990;4.494;2023-08-30T02:39:44;5.32;;;3.28;;
16320;SDS011;8269;50.990;4.494;2023-08-30T02:42:10;5.22;;;3.35;;
16320;SDS011;8269;50.990;4.494;2023-08-30T02:44:35;6.55;;;3.80;;
16320;SDS011;8269;50.990;4.494;2023-08-30T02:47:01;5.95;;;3.60;;
16320;SDS011;8269;50.990;4.494;2023-08-30T02:49:27;5.00;;;3.30;;
16320;SDS011;8269;50.990;4.494;2023-08-30T02:51:52;5.60;;;3.33;;
16320;SDS011;8269;50.990;4.494;2023-08-30T02:54:18;5.28;;;3.28;;
16320;SDS011;8269;50.990;4.494;2023-08-30T02:56:44;4.65;;;3.10;;
16320;SDS011;8269;50.990;4.494;2023-08-30T02:59:10;5.22;;;3.33;;
16320;SDS011;8269;50.990;4.494;2023-08-30T03:01:36;6.68;;;3.55;;
16320;SDS011;8269;50.990;4.494;2023-08-30T03:04:06;6.20;;;3.35;;
16320;SDS011;8269;50.990;4.494;2023-08-30T03:06:33;5.35;;;3.47;;
16320;SDS011;8269;50.990;4.494;2023-08-30T03:08:59;6.50;;;3.35;;
16320;SDS011;8269;50.990;4.494;2023-08-30T03:11:25;5.80;;;3.20;;
16320;SDS011;8269;50.990;4.494;2023-08-30T03:13:50;4.97;;;3.30;;
16320;SDS011;8269;50.990;4.494;2023-08-30T03:16:18;5.68;;;3.35;;
16320;SDS011;8269;50.990;4.494;2023-08-30T03:18:44;5.35;;;3.55;;
16320;SDS011;8269;50.990;4.494;2023-08-30T03:21:10;5.68;;;3.50;;
16320;SDS011;8269;50.990;4.494;2023-08-30T03:23:36;5.38;;;3.30;;
16320;SDS011;8269;50.990;4.494;2023-08-30T03:26:09;5.70;;;3.33;;
16320;SDS011;8269;50.990;4.494;2023-08-30T03:28:39;5.65;;;3.70;;
16320;SDS011;8269;50.990;4.494;2023-08-30T03:31:13;5.07;;;3.53;;
16320;SDS011;8269;50.990;4.494;2023-08-30T03:33:45;4.80;;;3.15;;
16320;SDS011;8269;50.990;4.494;2023-08-30T03:36:15;6.70;;;3.90;;
16320;SDS011;8269;50.990;4.494;2023-08-30T03:38:42;6.28;;;3.78;;
16320;SDS011;8269;50.990;4.494;2023-08-30T03:41:08;4.80;;;3.20;;
16320;SDS011;8269;50.990;4.494;2023-08-30T03:43:35;7.15;;;3.65;;
16320;SDS011;8269;50.990;4.494;2023-08-30T03:46:01;6.03;;;3.63;;
16320;SDS011;8269;50.990;4.494;2023-08-30T03:48:27;7.57;;;3.85;;
16320;SDS011;8269;50.990;4.494;2023-08-30T03:50:54;7.50;;;4.47;;
16320;SDS011;8269;50.990;4.494;2023-08-30T03:53:20;6.95;;;3.60;;
16320;SDS011;8269;50.990;4.494;2023-08-30T03:55:46;8.20;;;4.15;;
16320;SDS011;8269;50.990;4.494;2023-08-30T03:58:11;8.95;;;4.28;;
16320;SDS011;8269;50.990;4.494;2023-08-30T04:00:38;7.90;;;4.10;;
16320;SDS011;8269;50.990;4.494;2023-08-30T04:03:04;8.57;;;4.10;;
16320;SDS011;8269;50.990;4.494;2023-08-30T04:05:34;8.13;;;3.70;;
16320;SDS011;8269;50.990;4.494;2023-08-30T04:08:03;7.68;;;4.43;;
16320;SDS011;8269;50.990;4.494;2023-08-30T04:10:33;8.15;;;4.38;;
16320;SDS011;8269;50.990;4.494;2023-08-30T04:13:00;8.35;;;4.57;;
16320;SDS011;8269;50.990;4.494;2023-08-30T04:15:26;6.50;;;3.92;;
16320;SDS011;8269;50.990;4.494;2023-08-30T04:17:51;6.90;;;3.90;;
16320;SDS011;8269;50.990;4.494;2023-08-30T04:20:17;6.85;;;3.53;;
16320;SDS011;8269;50.990;4.494;2023-08-30T04:22:43;6.60;;;3.72;;
16320;SDS011;8269;50.990;4.494;2023-08-30T04:25:08;7.30;;;3.85;;
16320;SDS011;8269;50.990;4.494;2023-08-30T04:27:34;7.20;;;3.90;;
16320;SDS011;8269;50.990;4.494;2023-08-30T04:30:00;5.70;;;3.95;;
16320;SDS011;8269;50.990;4.494;2023-08-30T04:32:26;6.60;;;3.25;;
16320;SDS011;8269;50.990;4.494;2023-08-30T04:34:52;6.28;;;3.55;;
16320;SDS011;8269;50.990;4.494;2023-08-30T04:37:18;7.05;;;3.42;;
16320;SDS011;8269;50.990;4.494;2023-08-30T04:39:46;7.15;;;3.58;;
16320;SDS011;8269;50.990;4.494;2023-08-30T04:42:13;7.05;;;3.85;;
16320;SDS011;8269;50.990;4.494;2023-08-30T04:44:39;6.32;;;4.00;;
16320;SDS011;8269;50.990;4.494;2023-08-30T04:47:05;7.45;;;3.30;;
16320;SDS011;8269;50.990;4.494;2023-08-30T04:49:30;6.25;;;3.17;;
16320;SDS011;8269;50.990;4.494;2023-08-30T04:51:56;7.07;;;3.38;;
16320;SDS011;8269;50.990;4.494;2023-08-30T04:54:22;7.78;;;3.53;;
16320;SDS011;8269;50.990;4.494;2023-08-30T04:56:47;7.32;;;3.42;;
16320;SDS011;8269;50.990;4.494;2023-08-30T04:59:14;5.70;;;3.10;;
16320;SDS011;8269;50.990;4.494;2023-08-30T05:01:40;6.47;;;3.20;;
16320;SDS011;8269;50.990;4.494;2023-08-30T05:04:09;7.28;;;3.67;;
16320;SDS011;8269;50.990;4.494;2023-08-30T05:06:35;5.07;;;2.92;;
16320;SDS011;8269;50.990;4.494;2023-08-30T05:09:01;5.53;;;2.72;;
16320;SDS011;8269;50.990;4.494;2023-08-30T05:11:27;5.55;;;3.13;;
16320;SDS011;8269;50.990;4.494;2023-08-30T05:13:54;6.95;;;3.22;;
16320;SDS011;8269;50.990;4.494;2023-08-30T05:16:20;6.88;;;3.13;;
16320;SDS011;8269;50.990;4.494;2023-08-30T05:18:45;6.25;;;3.03;;
16320;SDS011;8269;50.990;4.494;2023-08-30T05:21:13;6.38;;;3.00;;
16320;SDS011;8269;50.990;4.494;2023-08-30T05:23:39;5.95;;;2.92;;
16320;SDS011;8269;50.990;4.494;2023-08-30T05:26:07;5.32;;;3.08;;
16320;SDS011;8269;50.990;4.494;2023-08-30T05:28:34;6.20;;;3.20;;
16320;SDS011;8269;50.990;4.494;2023-08-30T05:31:00;7.57;;;3.45;;
16320;SDS011;8269;50.990;4.494;2023-08-30T05:33:25;7.88;;;3.47;;
16320;SDS011;8269;50.990;4.494;2023-08-30T05:35:51;5.80;;;2.90;;
16320;SDS011;8269;50.990;4.494;2023-08-30T05:38:17;7.45;;;3.75;;
16320;SDS011;8269;50.990;4.494;2023-08-30T05:40:42;6.40;;;3.47;;
16320;SDS011;8269;50.990;4.494;2023-08-30T05:43:10;6.72;;;3.83;;
16320;SDS011;8269;50.990;4.494;2023-08-30T05:45:36;7.05;;;4.13;;
16320;SDS011;8269;50.990;4.494;2023-08-30T05:48:02;8.18;;;4.18;;
16320;SDS011;8269;50.990;4.494;2023-08-30T05:50:28;8.15;;;3.78;;
16320;SDS011;8269;50.990;4.494;2023-08-30T05:52:54;8.55;;;4.43;;
16320;SDS011;8269;50.990;4.494;2023-08-30T05:55:19;8.80;;;3.80;;
16320;SDS011;8269;50.990;4.494;2023-08-30T05:57:45;6.70;;;4.22;;
16320;SDS011;8269;50.990;4.494;2023-08-30T06:00:12;7.75;;;4.13;;
16320;SDS011;8269;50.990;4.494;2023-08-30T06:02:43;7.28;;;3.80;;
16320;SDS011;8269;50.990;4.494;2023-08-30T06:05:08;5.97;;;4.07;;
16320;SDS011;8269;50.990;4.494;2023-08-30T06:07:34;7.10;;;3.95;;
16320;SDS011;8269;50.990;4.494;2023-08-30T06:10:00;7.45;;;3.95;;
16320;SDS011;8269;50.990;4.494;2023-08-30T06:12:25;5.65;;;3.70;;
16320;SDS011;8269;50.990;4.494;2023-08-30T06:14:51;9.05;;;4.07;;
16320;SDS011;8269;50.990;4.494;2023-08-30T06:17:18;7.25;;;3.97;;
16320;SDS011;8269;50.990;4.494;2023-08-30T06:19:45;7.30;;;3.83;;
16320;SDS011;8269;50.990;4.494;2023-08-30T06:22:11;5.88;;;4.25;;
16320;SDS011;8269;50.990;4.494;2023-08-30T06:24:37;6.00;;;3.92;;
16320;SDS011;8269;50.990;4.494;2023-08-30T06:27:02;5.95;;;4.10;;
16320;SDS011;8269;50.990;4.494;2023-08-30T06:29:28;6.33;;;3.80;;
16320;SDS011;8269;50.990;4.494;2023-08-30T06:31:54;5.93;;;3.65;;
16320;SDS011;8269;50.990;4.494;2023-08-30T06:34:19;7.38;;;3.85;;
16320;SDS011;8269;50.990;4.494;2023-08-30T06:36:45;6.72;;;4.30;;
16320;SDS011;8269;50.990;4.494;2023-08-30T06:39:11;6.50;;;3.80;;
16320;SDS011;8269;50.990;4.494;2023-08-30T06:41:36;6.10;;;3.58;;
16320;SDS011;8269;50.990;4.494;2023-08-30T06:44:02;6.38;;;3.85;;
16320;SDS011;8269;50.990;4.494;2023-08-30T06:46:29;6.80;;;3.70;;
16320;SDS011;8269;50.990;4.494;2023-08-30T06:48:54;5.53;;;3.47;;
16320;SDS011;8269;50.990;4.494;2023-08-30T06:51:20;5.45;;;3.60;;
16320;SDS011;8269;50.990;4.494;2023-08-30T06:53:46;6.32;;;3.42;;
16320;SDS011;8269;50.990;4.494;2023-08-30T06:56:12;6.10;;;3.80;;
16320;SDS011;8269;50.990;4.494;2023-08-30T06:58:38;6.13;;;3.50;;
16320;SDS011;8269;50.990;4.494;2023-08-30T07:01:03;5.72;;;3.40;;
16320;SDS011;8269;50.990;4.494;2023-08-30T07:03:29;6.53;;;3.85;;
16320;SDS011;8269;50.990;4.494;2023-08-30T07:05:55;6.68;;;3.95;;
16320;SDS011;8269;50.990;4.494;2023-08-30T07:08:20;5.97;;;3.80;;
16320;SDS011;8269;50.990;4.494;2023-08-30T07:10:46;6.28;;;4.07;;
16320;SDS011;8269;50.990;4.494;2023-08-30T07:13:12;6.45;;;3.97;;
16320;SDS011;8269;50.990;4.494;2023-08-30T07:15:38;5.18;;;3.60;;
16320;SDS011;8269;50.990;4.494;2023-08-30T07:18:05;6.38;;;4.22;;
16320;SDS011;8269;50.990;4.494;2023-08-30T07:20:34;6.10;;;3.78;;
16320;SDS011;8269;50.990;4.494;2023-08-30T07:23:01;6.63;;;3.97;;
16320;SDS011;8269;50.990;4.494;2023-08-30T07:25:27;7.07;;;4.45;;
16320;SDS011;8269;50.990;4.494;2023-08-30T07:27:54;7.53;;;4.20;;
16320;SDS011;8269;50.990;4.494;2023-08-30T07:30:20;7.43;;;4.35;;
16320;SDS011;8269;50.990;4.494;2023-08-30T07:32:45;6.95;;;4.20;;
16320;SDS011;8269;50.990;4.494;2023-08-30T07:35:11;8.23;;;5.13;;
16320;SDS011;8269;50.990;4.494;2023-08-30T07:37:37;7.07;;;4.43;;
16320;SDS011;8269;50.990;4.494;2023-08-30T07:40:02;5.07;;;3.72;;
16320;SDS011;8269;50.990;4.494;2023-08-30T07:42:31;4.57;;;3.13;;
16320;SDS011;8269;50.990;4.494;2023-08-30T07:44:56;6.28;;;3.90;;
16320;SDS011;8269;50.990;4.494;2023-08-30T07:47:22;6.70;;;3.53;;
16320;SDS011;8269;50.990;4.494;2023-08-30T07:49:47;5.80;;;3.70;;
16320;SDS011;8269;50.990;4.494;2023-08-30T07:52:13;5.20;;;3.50;;
16320;SDS011;8269;50.990;4.494;2023-08-30T07:54:39;6.15;;;4.18;;
16320;SDS011;8269;50.990;4.494;2023-08-30T07:57:05;6.28;;;4.07;;
16320;SDS011;8269;50.990;4.494;2023-08-30T07:59:40;5.53;;;3.50;;
16320;SDS011;8269;50.990;4.494;2023-08-30T08:02:06;6.80;;;3.78;;
16320;SDS011;8269;50.990;4.494;2023-08-30T08:04:33;6.20;;;3.75;;
16320;SDS011;8269;50.990;4.494;2023-08-30T08:07:02;6.65;;;3.50;;
16320;SDS011;8269;50.990;4.494;2023-08-30T08:09:28;6.47;;;3.78;;
16320;SDS011;8269;50.990;4.494;2023-08-30T08:11:54;6.57;;;3.75;;
16320;SDS011;8269;50.990;4.494;2023-08-30T08:14:21;5.05;;;3.40;;
16320;SDS011;8269;50.990;4.494;2023-08-30T08:16:47;6.00;;;3.75;;
16320;SDS011;8269;50.990;4.494;2023-08-30T08:19:13;5.40;;;3.92;;
16320;SDS011;8269;50.990;4.494;2023-08-30T08:21:39;5.72;;;3.30;;
16320;SDS011;8269;50.990;4.494;2023-08-30T08:24:04;6.22;;;4.03;;
16320;SDS011;8269;50.990;4.494;2023-08-30T08:26:30;5.75;;;3.55;;
16320;SDS011;8269;50.990;4.494;2023-08-30T08:28:56;5.80;;;3.65;;
16320;SDS011;8269;50.990;4.494;2023-08-30T08:31:22;6.30;;;3.10;;
16320;SDS011;8269;50.990;4.494;2023-08-30T08:33:51;5.45;;;3.50;;
16320;SDS011;8269;50.990;4.494;2023-08-30T08:36:32;7.63;;;3.95;;
16320;SDS011;8269;50.990;4.494;2023-08-30T08:38:57;6.97;;;3.92;;
16320;SDS011;8269;50.990;4.494;2023-08-30T08:41:23;6.63;;;3.83;;
16320;SDS011;8269;50.990;4.494;2023-08-30T08:43:59;4.85;;;2.90;;
16320;SDS011;8269;50.990;4.494;2023-08-30T08:46:26;6.18;;;3.50;;
16320;SDS011;8269;50.990;4.494;2023-08-30T08:48:54;7.00;;;3.60;;
16320;SDS011;8269;50.990;4.494;2023-08-30T08:51:22;6.28;;;3.88;;
16320;SDS011;8269;50.990;4.494;2023-08-30T08:53:49;5.70;;;4.10;;
16320;SDS011;8269;50.990;4.494;2023-08-30T08:56:15;6.78;;;3.95;;
16320;SDS011;8269;50.990;4.494;2023-08-30T08:58:41;6.53;;;3.80;;
16320;SDS011;8269;50.990;4.494;2023-08-30T09:01:08;6.63;;;3.72;;
16320;SDS011;8269;50.990;4.494;2023-08-30T09:03:35;6.18;;;4.00;;
16320;SDS011;8269;50.990;4.494;2023-08-30T09:06:02;5.25;;;3.42;;
16320;SDS011;8269;50.990;4.494;2023-08-30T09:08:28;5.60;;;3.40;;
16320;SDS011;8269;50.990;4.494;2023-08-30T09:10:54;5.72;;;3.53;;
16320;SDS011;8269;50.990;4.494;2023-08-30T09:13:19;5.28;;;3.05;;
16320;SDS011;8269;50.990;4.494;2023-08-30T09:15:48;5.55;;;3.75;;
16320;SDS011;8269;50.990;4.494;2023-08-30T09:18:17;7.05;;;4.00;;
16320;SDS011;8269;50.990;4.494;2023-08-30T09:20:44;5.90;;;3.58;;
16320;SDS011;8269;50.990;4.494;2023-08-30T09:23:16;5.38;;;3.75;;
16320;SDS011;8269;50.990;4.494;2023-08-30T09:25:43;6.15;;;3.80;;
16320;SDS011;8269;50.990;4.494;2023-08-30T09:28:10;5.72;;;3.67;;
16320;SDS011;8269;50.990;4.494;2023-08-30T09:30:35;6.47;;;4.07;;
16320;SDS011;8269;50.990;4.494;2023-08-30T09:33:01;6.78;;;3.88;;
16320;SDS011;8269;50.990;4.494;2023-08-30T09:35:28;5.07;;;3.65;;
16320;SDS011;8269;50.990;4.494;2023-08-30T09:37:53;6.28;;;4.13;;
16320;SDS011;8269;50.990;4.494;2023-08-30T09:40:19;6.20;;;4.00;;
16320;SDS011;8269;50.990;4.494;2023-08-30T09:42:45;7.90;;;4.45;;
16320;SDS011;8269;50.990;4.494;2023-08-30T09:45:21;5.32;;;3.55;;
16320;SDS011;8269;50.990;4.494;2023-08-30T09:47:48;4.65;;;3.35;;
16320;SDS011;8269;50.990;4.494;2023-08-30T09:50:17;5.22;;;3.72;;
16320;SDS011;8269;50.990;4.494;2023-08-30T09:52:50;6.15;;;3.40;;
16320;SDS011;8269;50.990;4.494;2023-08-30T09:55:18;6.85;;;3.55;;
16320;SDS011;8269;50.990;4.494;2023-08-30T09:57:44;6.20;;;4.03;;
16320;SDS011;8269;50.990;4.494;2023-08-30T10:00:10;5.65;;;3.63;;
16320;SDS011;8269;50.990;4.494;2023-08-30T10:02:42;6.63;;;4.63;;
16320;SDS011;8269;50.990;4.494;2023-08-30T10:05:09;6.03;;;4.05;;
16320;SDS011;8269;50.990;4.494;2023-08-30T10:07:38;5.75;;;3.95;;
16320;SDS011;8269;50.990;4.494;2023-08-30T10:10:04;6.22;;;3.88;;
16320;SDS011;8269;50.990;4.494;2023-08-30T10:12:33;5.70;;;3.47;;
16320;SDS011;8269;50.990;4.494;2023-08-30T10:14:59;6.97;;;3.97;;
16320;SDS011;8269;50.990;4.494;2023-08-30T10:17:31;5.80;;;3.65;;
16320;SDS011;8269;50.990;4.494;2023-08-30T10:20:03;5.00;;;3.65;;
16320;SDS011;8269;50.990;4.494;2023-08-30T10:22:31;5.63;;;3.80;;
16320;SDS011;8269;50.990;4.494;2023-08-30T10:25:02;5.45;;;3.70;;
16320;SDS011;8269;50.990;4.494;2023-08-30T10:27:33;5.78;;;4.05;;
16320;SDS011;8269;50.990;4.494;2023-08-30T10:30:01;5.43;;;3.67;;
16320;SDS011;8269;50.990;4.494;2023-08-30T10:32:29;5.75;;;3.65;;
16320;SDS011;8269;50.990;4.494;2023-08-30T10:34:56;5.00;;;3.45;;
16320;SDS011;8269;50.990;4.494;2023-08-30T10:37:28;6.20;;;3.78;;
16320;SDS011;8269;50.990;4.494;2023-08-30T10:39:59;5.82;;;3.90;;
16320;SDS011;8269;50.990;4.494;2023-08-30T10:42:28;6.30;;;3.80;;
16320;SDS011;8269;50.990;4.494;2023-08-30T10:44:57;6.00;;;4.20;;
16320;SDS011;8269;50.990;4.494;2023-08-30T10:47:28;7.13;;;4.15;;
16320;SDS011;8269;50.990;4.494;2023-08-30T10:49:55;6.63;;;4.07;;
16320;SDS011;8269;50.990;4.494;2023-08-30T10:52:22;6.18;;;3.53;;
16320;SDS011;8269;50.990;4.494;2023-08-30T10:54:49;5.55;;;3.83;;
16320;SDS011;8269;50.990;4.494;2023-08-30T10:57:19;6.97;;;4.05;;
16320;SDS011;8269;50.990;4.494;2023-08-30T11:02:34;6.32;;;4.57;;
16320;SDS011;8269;50.990;4.494;2023-08-30T11:05:02;6.07;;;3.90;;
16320;SDS011;8269;50.990;4.494;2023-08-30T11:07:30;5.53;;;4.05;;
16320;SDS011;8269;50.990;4.494;2023-08-30T11:09:57;6.45;;;4.10;;
16320;SDS011;8269;50.990;4.494;2023-08-30T11:12:23;7.60;;;4.00;;
16320;SDS011;8269;50.990;4.494;2023-08-30T11:14:51;6.03;;;4.05;;
16320;SDS011;8269;50.990;4.494;2023-08-30T11:17:17;5.88;;;4.00;;
16320;SDS011;8269;50.990;4.494;2023-08-30T11:19:49;7.03;;;3.70;;
16320;SDS011;8269;50.990;4.494;2023-08-30T11:22:15;5.57;;;3.80;;
16320;SDS011;8269;50.990;4.494;2023-08-30T11:24:42;7.03;;;4.07;;
16320;SDS011;8269;50.990;4.494;2023-08-30T11:27:08;7.18;;;3.80;;
16320;SDS011;8269;50.990;4.494;2023-08-30T11:29:34;6.38;;;3.80;;
16320;SDS011;8269;50.990;4.494;2023-08-30T11:32:00;5.93;;;2.92;;
16320;SDS011;8269;50.990;4.494;2023-08-30T11:34:26;5.55;;;2.40;;
16320;SDS011;8269;50.990;4.494;2023-08-30T11:36:52;3.88;;;1.83;;
16320;SDS011;8269;50.990;4.494;2023-08-30T11:39:18;3.70;;;1.83;;
16320;SDS011;8269;50.990;4.494;2023-08-30T11:41:45;4.93;;;1.85;;
16320;SDS011;8269;50.990;4.494;2023-08-30T11:44:12;3.83;;;1.77;;
16320;SDS011;8269;50.990;4.494;2023-08-30T11:46:37;3.50;;;1.50;;
16320;SDS011;8269;50.990;4.494;2023-08-30T11:49:03;3.42;;;1.50;;
16320;SDS011;8269;50.990;4.494;2023-08-30T11:51:30;3.72;;;1.83;;
16320;SDS011;8269;50.990;4.494;2023-08-30T11:53:56;3.35;;;1.27;;
16320;SDS011;8269;50.990;4.494;2023-08-30T11:56:22;3.67;;;1.35;;
16320;SDS011;8269;50.990;4.494;2023-08-30T11:58:48;5.93;;;1.65;;
16320;SDS011;8269;50.990;4.494;2023-08-30T12:01:16;4.20;;;1.67;;
16320;SDS011;8269;50.990;4.494;2023-08-30T12:03:44;2.25;;;1.02;;
16320;SDS011;8269;50.990;4.494;2023-08-30T12:06:15;2.97;;;1.45;;
16320;SDS011;8269;50.990;4.494;2023-08-30T12:08:42;4.75;;;1.58;;
16320;SDS011;8269;50.990;4.494;2023-08-30T12:11:20;5.88;;;1.55;;
16320;SDS011;8269;50.990;4.494;2023-08-30T12:13:46;3.35;;;1.42;;
16320;SDS011;8269;50.990;4.494;2023-08-30T12:16:16;3.45;;;1.15;;
16320;SDS011;8269;50.990;4.494;2023-08-30T12:18:43;3.15;;;1.42;;
16320;SDS011;8269;50.990;4.494;2023-08-30T12:21:09;2.45;;;1.27;;
16320;SDS011;8269;50.990;4.494;2023-08-30T12:23:35;3.60;;;1.30;;
16320;SDS011;8269;50.990;4.494;2023-08-30T12:26:04;3.78;;;1.48;;
16320;SDS011;8269;50.990;4.494;2023-08-30T12:28:34;3.50;;;1.30;;
16320;SDS011;8269;50.990;4.494;2023-08-30T12:31:04;3.72;;;1.40;;
16320;SDS011;8269;50.990;4.494;2023-08-30T12:33:30;3.25;;;1.50;;
16320;SDS011;8269;50.990;4.494;2023-08-30T12:35:56;3.08;;;1.40;;
16320;SDS011;8269;50.990;4.494;2023-08-30T12:38:23;2.08;;;1.40;;
16320;SDS011;8269;50.990;4.494;2023-08-30T12:40:50;3.70;;;1.23;;
16320;SDS011;8269;50.990;4.494;2023-08-30T12:43:17;4.50;;;1.65;;
16320;SDS011;8269;50.990;4.494;2023-08-30T12:45:44;3.03;;;1.45;;
16320;SDS011;8269;50.990;4.494;2023-08-30T12:48:11;3.70;;;1.42;;
16320;SDS011;8269;50.990;4.494;2023-08-30T12:50:41;3.47;;;1.40;;
16320;SDS011;8269;50.990;4.494;2023-08-30T12:53:11;2.53;;;1.17;;
16320;SDS011;8269;50.990;4.494;2023-08-30T12:55:37;4.18;;;1.38;;
16320;SDS011;8269;50.990;4.494;2023-08-30T12:58:05;2.42;;;1.27;;
16320;SDS011;8269;50.990;4.494;2023-08-30T13:00:35;4.25;;;1.42;;
16320;SDS011;8269;50.990;4.494;2023-08-30T13:03:01;2.20;;;1.30;;
16320;SDS011;8269;50.990;4.494;2023-08-30T13:05:28;2.75;;;1.40;;
16320;SDS011;8269;50.990;4.494;2023-08-30T13:07:56;3.70;;;1.42;;
16320;SDS011;8269;50.990;4.494;2023-08-30T13:10:23;4.32;;;1.80;;
16320;SDS011;8269;50.990;4.494;2023-08-30T13:12:49;3.67;;;1.27;;
16320;SDS011;8269;50.990;4.494;2023-08-30T13:15:14;3.28;;;1.33;;
16320;SDS011;8269;50.990;4.494;2023-08-30T13:17:40;3.67;;;1.60;;
16320;SDS011;8269;50.990;4.494;2023-08-30T13:20:06;4.50;;;1.20;;
16320;SDS011;8269;50.990;4.494;2023-08-30T13:22:32;3.38;;;1.02;;
16320;SDS011;8269;50.990;4.494;2023-08-30T13:24:57;2.63;;;1.20;;
16320;SDS011;8269;50.990;4.494;2023-08-30T13:27:23;3.38;;;1.20;;
16320;SDS011;8269;50.990;4.494;2023-08-30T13:29:48;4.40;;;1.27;;
16320;SDS011;8269;50.990;4.494;2023-08-30T13:32:14;3.75;;;1.30;;
16320;SDS011;8269;50.990;4.494;2023-08-30T13:34:40;3.50;;;1.27;;
16320;SDS011;8269;50.990;4.494;2023-08-30T13:37:08;2.42;;;1.20;;
16320;SDS011;8269;50.990;4.494;2023-08-30T13:39:34;2.25;;;0.98;;
16320;SDS011;8269;50.990;4.494;2023-08-30T13:41:59;2.80;;;1.10;;
16320;SDS011;8269;50.990;4.494;2023-08-30T13:44:25;2.33;;;1.30;;
16320;SDS011;8269;50.990;4.494;2023-08-30T13:46:51;3.67;;;1.13;;
16320;SDS011;8269;50.990;4.494;2023-08-30T13:49:16;3.42;;;1.13;;
16320;SDS011;8269;50.990;4.494;2023-08-30T13:51:43;5.13;;;1.30;;
16320;SDS011;8269;50.990;4.494;2023-08-30T13:54:12;2.00;;;0.98;;
16320;SDS011;8269;50.990;4.494;2023-08-30T13:56:38;3.20;;;1.23;;
16320;SDS011;8269;50.990;4.494;2023-08-30T13:59:04;4.78;;;1.02;;
16320;SDS011;8269;50.990;4.494;2023-08-30T14:01:32;1.75;;;0.80;;
16320;SDS011;8269;50.990;4.494;2023-08-30T14:04:00;2.53;;;1.00;;
16320;SDS011;8269;50.990;4.494;2023-08-30T14:06:25;2.35;;;1.08;;
16320;SDS011;8269;50.990;4.494;2023-08-30T14:08:51;1.73;;;1.05;;
16320;SDS011;8269;50.990;4.494;2023-08-30T14:11:17;1.50;;;0.90;;
16320;SDS011;8269;50.990;4.494;2023-08-30T14:13:43;3.05;;;0.98;;
16320;SDS011;8269;50.990;4.494;2023-08-30T14:16:08;3.00;;;1.05;;
16320;SDS011;8269;50.990;4.494;2023-08-30T14:18:35;1.58;;;0.90;;
16320;SDS011;8269;50.990;4.494;2023-08-30T14:21:01;2.60;;;0.80;;
16320;SDS011;8269;50.990;4.494;2023-08-30T14:23:27;2.53;;;1.20;;
16320;SDS011;8269;50.990;4.494;2023-08-30T14:26:00;1.50;;;0.80;;
16320;SDS011;8269;50.990;4.494;2023-08-30T14:28:40;3.67;;;1.08;;
16320;SDS011;8269;50.990;4.494;2023-08-30T14:31:06;3.00;;;0.93;;
16320;SDS011;8269;50.990;4.494;2023-08-30T14:33:33;4.10;;;1.20;;
16320;SDS011;8269;50.990;4.494;2023-08-30T14:36:00;2.28;;;1.00;;
16320;SDS011;8269;50.990;4.494;2023-08-30T14:38:28;2.60;;;1.20;;
16320;SDS011;8269;50.990;4.494;2023-08-30T14:40:58;2.92;;;1.23;;
16320;SDS011;8269;50.990;4.494;2023-08-30T14:43:24;2.20;;;0.95;;
16320;SDS011;8269;50.990;4.494;2023-08-30T14:45:50;3.05;;;1.30;;
16320;SDS011;8269;50.990;4.494;2023-08-30T14:48:16;1.48;;;0.80;;
16320;SDS011;8269;50.990;4.494;2023-08-30T14:50:42;1.77;;;1.02;;
16320;SDS011;8269;50.990;4.494;2023-08-30T14:53:07;2.08;;;0.90;;
16320;SDS011;8269;50.990;4.494;2023-08-30T14:55:33;2.00;;;1.00;;
16320;SDS011;8269;50.990;4.494;2023-08-30T14:57:59;3.05;;;1.10;;
16320;SDS011;8269;50.990;4.494;2023-08-30T15:00:25;1.90;;;0.77;;
16320;SDS011;8269;50.990;4.494;2023-08-30T15:02:51;3.63;;;1.17;;
16320;SDS011;8269;50.990;4.494;2023-08-30T15:05:17;3.35;;;1.20;;
16320;SDS011;8269;50.990;4.494;2023-08-30T15:07:43;2.67;;;0.80;;